ロンドン/ヒースロー の空港の天気 - METARとTAF

ロンドン・ヒースロー空港 ( EGLL / LHR ) - イギリス ロンドン
飛行場実況気象(Metar)
観測時間11/14 17:50 GMT (11/14 17:50 UTC)
風向・風速南 4m/s
視程10km以上
天気現象
なし
気温11℃
湿度82%
気圧1021hPa
METAREGLL 141750Z AUTO 17007KT 140V230 9999 NCD 11/08 Q1021
過去の天気等 Google飛行場航空写真 Wunderground天気予報

過去48時間のMETAR

飛行場予報(TAF)
発表時間: 11/14 16:54 GMT (11/14 16:54 UTC)
予報対象時間: 14日18時 GMT ~ 16日0時 GMT
風向・風速南南東 3m/s
視程10km以上
少しの雲 雲底高度 460m
14日19時 GMT ~ 14日22時 GMT に徐々に
視程7000m
14日19時 GMT ~ 14日24時 GMT に 確率 30% で一時的に
全天の8割程度の雲 雲底高度 300m
15日0時 GMT ~ 15日10時 GMT に一時的に
視程3000m
天気現象もや
全天の8割程度の雲 雲底高度 180m
15日3時 GMT ~ 15日9時 GMT に 確率 30% で一時的に
全天の8割程度の雲 雲底高度 120m
15日9時 GMT ~ 15日12時 GMT に徐々に
全天の8割程度の雲 雲底高度 300m
15日12時 GMT から 確率 40% で
視程10km以上
15日16時 GMT ~ 15日19時 GMT に徐々に
全天の8割程度の雲 雲底高度 210m
15日21時 GMT ~ 15日24時 GMT に 確率 30% で一時的に
視程3000m
天気現象もや
全天の8割程度の雲 雲底高度 120m
TAF EGLL 141654Z 1418/1524 16005KT 9999 FEW015
BECMG 1419/1422 7000
PROB30 TEMPO 1419/1424 BKN010
TEMPO 1500/1510 3000 BR BKN006
PROB30 TEMPO 1503/1509 BKN004
BECMG 1509/1512 BKN010
PROB40 1512/1518 9999
BECMG 1516/1519 BKN007
PROB30 TEMPO 1521/1524 3000 BR BKN004